Time;durP1;ratioP1;P1;durP2;ratioP2;P2;SDS_P1;SDS_P2;PMS_P1;PMS_P2;Temp;Humidity;BMP_temperature;BMP_pressure;BME280_temperature;BME280_humidity;BME280_pressure;Samples;Min_cycle;Max_cycle;Signal;HPM_P1;HPM_P2
2021/09/24 00:01:02;;;;;;;13.80;6.87;;;;;;;9.73;69.47;100380.26;126328;1099;104236;-79
2021/09/24 00:03:35;;;;;;;16.30;7.75;;;;;;;9.70;68.73;100381.02;126234;1099;104325;-79
2021/09/24 00:06:08;;;;;;;14.23;6.63;;;;;;;9.69;69.35;100374.91;126317;1099;104458;-79
2021/09/24 00:08:40;;;;;;;14.10;6.80;;;;;;;9.68;68.83;100380.09;126356;1099;104155;-79
2021/09/24 00:11:10;;;;;;;12.70;6.73;;;;;;;9.68;69.34;100382.70;126348;1099;104277;-79
2021/09/24 00:13:41;;;;;;;14.30;6.67;;;;;;;9.65;69.24;100375.61;126241;1099;104682;-80
2021/09/24 00:16:14;;;;;;;14.40;6.57;;;;;;;9.62;68.72;100367.64;126327;1099;104246;-80
2021/09/24 00:18:46;;;;;;;17.27;6.90;;;;;;;9.61;69.05;100371.08;126308;1099;104310;-79
2021/09/24 00:21:17;;;;;;;13.60;6.77;;;;;;;9.58;68.80;100362.23;126327;1095;104265;-79
2021/09/24 00:23:48;;;;;;;13.20;6.50;;;;;;;9.57;68.69;100363.05;126298;1099;104153;-80
2021/09/24 00:26:18;;;;;;;14.17;6.20;;;;;;;9.55;68.79;100352.52;126340;1099;104162;-80
2021/09/24 00:28:49;;;;;;;12.87;6.20;;;;;;;9.55;69.21;100347.27;126337;1099;104139;-79
2021/09/24 00:31:20;;;;;;;12.17;6.30;;;;;;;9.54;69.27;100348.13;126364;1099;104245;-80
2021/09/24 00:33:51;;;;;;;13.87;6.53;;;;;;;9.53;69.20;100338.48;126352;1099;104143;-81
2021/09/24 00:36:21;;;;;;;13.77;6.30;;;;;;;9.53;69.34;100355.08;126359;1098;104317;-79
2021/09/24 00:38:53;;;;;;;14.80;6.40;;;;;;;9.52;69.04;100352.40;126353;1099;104287;-79
2021/09/24 00:41:24;;;;;;;13.10;6.40;;;;;;;9.50;69.22;100343.60;126302;1099;104239;-80
2021/09/24 00:43:56;;;;;;;15.53;6.17;;;;;;;9.50;69.34;100351.45;126294;1098;104156;-79
2021/09/24 00:46:26;;;;;;;14.30;6.93;;;;;;;9.50;68.77;100346.22;126301;1099;104194;-79
2021/09/24 00:48:57;;;;;;;11.20;5.43;;;;;;;9.51;69.23;100345.40;126367;1099;104146;-79
2021/09/24 00:51:28;;;;;;;11.73;6.20;;;;;;;9.48;68.64;100340.92;126300;1099;104398;-80
2021/09/24 00:54:00;;;;;;;14.83;6.20;;;;;;;9.47;69.22;100336.54;126265;1099;104142;-79
2021/09/24 00:56:32;;;;;;;13.70;6.63;;;;;;;9.46;69.21;100344.34;126304;1099;110688;-80
2021/09/24 00:59:04;;;;;;;13.30;6.30;;;;;;;9.43;69.03;100336.37;126335;1099;104139;-79
2021/09/24 01:01:36;;;;;;;13.17;6.03;;;;;;;9.41;69.38;100328.45;126329;1099;104192;-79
2021/09/24 01:04:08;;;;;;;12.87;6.37;;;;;;;9.42;69.59;100332.84;126274;1099;104229;-79
2021/09/24 01:06:40;;;;;;;12.27;6.07;;;;;;;9.42;69.45;100326.72;126283;1099;104163;-81
2021/09/24 01:09:11;;;;;;;11.77;5.97;;;;;;;9.42;68.84;100322.36;126305;1099;104657;-80
2021/09/24 01:11:41;;;;;;;12.80;5.93;;;;;;;9.41;68.85;100320.59;126357;1099;104194;-80
2021/09/24 01:14:13;;;;;;;11.10;5.73;;;;;;;9.42;68.81;100319.74;126264;1099;104137;-81
2021/09/24 01:16:44;;;;;;;12.33;5.80;;;;;;;9.41;69.27;100311.83;126264;1099;104147;-80
2021/09/24 01:19:15;;;;;;;11.27;5.83;;;;;;;9.41;69.00;100314.45;126345;1099;104137;-79
2021/09/24 01:21:49;;;;;;;14.43;5.97;;;;;;;9.39;68.95;100305.66;126332;1099;104153;-79
2021/09/24 01:24:20;;;;;;;14.30;5.83;;;;;;;9.40;68.91;100302.20;126390;1099;104153;-80
2021/09/24 01:26:55;;;;;;;12.83;6.07;;;;;;;9.42;69.50;100298.79;126320;1099;105305;-80
2021/09/24 01:29:29;;;;;;;12.47;5.93;;;;;;;9.46;69.05;100297.20;126325;1099;104212;-81
2021/09/24 01:31:58;;;;;;;;;;;;;;;9.47;69.03;100289.39;126378;1099;104238;-80
2021/09/24 01:34:29;;;;;;;9.83;5.37;;;;;;;9.50;68.80;100291.22;126317;1099;104153;-80
2021/09/24 01:37:00;;;;;;;11.50;5.60;;;;;;;9.51;69.29;100280.80;126275;1099;104290;-79
2021/09/24 01:39:31;;;;;;;13.40;6.23;;;;;;;9.55;68.82;100273.92;126327;1099;104275;-79
2021/09/24 01:42:01;;;;;;;11.77;5.90;;;;;;;9.55;69.26;100266.07;126282;1099;104296;-79
2021/09/24 01:44:33;;;;;;;11.03;5.60;;;;;;;9.57;68.69;100264.42;126310;1099;104147;-80
2021/09/24 01:47:04;;;;;;;11.70;5.90;;;;;;;9.59;69.31;100260.11;126306;1099;104293;-79
2021/09/24 01:49:35;;;;;;;10.97;5.70;;;;;;;9.62;68.63;100256.73;126328;1099;104216;-79
2021/09/24 01:52:07;;;;;;;12.73;5.90;;;;;;;9.63;69.25;100250.63;126291;1099;104233;-79
2021/09/24 01:54:38;;;;;;;14.00;6.07;;;;;;;9.64;69.29;100234.08;126343;1099;104274;-80
2021/09/24 01:57:11;;;;;;;10.73;5.17;;;;;;;9.65;68.77;100223.66;126322;1099;104147;-80
2021/09/24 01:59:42;;;;;;;8.93;5.07;;;;;;;9.67;69.27;100215.85;126352;1099;104146;-79
2021/09/24 02:02:12;;;;;;;14.30;5.53;;;;;;;9.69;69.11;100220.32;126336;1097;104150;-79
2021/09/24 02:04:43;;;;;;;10.93;5.70;;;;;;;9.69;69.18;100215.08;126311;1099;104200;-80
2021/09/24 02:07:14;;;;;;;9.67;5.33;;;;;;;9.73;68.77;100212.56;126276;1099;104143;-80
2021/09/24 02:09:44;;;;;;;10.50;5.30;;;;;;;9.73;69.14;100212.56;126361;1099;104251;-79
2021/09/24 02:12:15;;;;;;;12.97;5.57;;;;;;;9.74;69.13;100203.84;126366;1099;104155;-79
2021/09/24 02:14:46;;;;;;;11.87;5.27;;;;;;;9.75;68.87;100197.78;126341;1099;104143;-79
2021/09/24 02:17:16;;;;;;;11.60;5.63;;;;;;;9.77;69.20;100198.71;126316;1098;104140;-81
2021/09/24 02:19:47;;;;;;;10.10;5.70;;;;;;;9.77;69.14;100185.61;126302;1099;104182;-80
2021/09/24 02:22:17;;;;;;;10.33;5.40;;;;;;;9.78;69.08;100185.66;126340;1099;104248;-80
2021/09/24 02:24:48;;;;;;;11.43;5.73;;;;;;;9.77;68.85;100180.37;126344;1098;104149;-79
2021/09/24 02:27:19;;;;;;;15.17;5.77;;;;;;;9.77;68.55;100170.80;126302;1099;104159;-80
2021/09/24 02:29:50;;;;;;;11.57;5.57;;;;;;;9.79;68.85;100162.99;126332;1099;104277;-81
2021/09/24 02:32:21;;;;;;;11.83;5.50;;;;;;;9.80;69.23;100156.89;126287;1099;104191;-80
2021/09/24 02:34:53;;;;;;;11.17;5.70;;;;;;;9.80;68.69;100146.41;126323;1099;104608;-79
2021/09/24 02:37:24;;;;;;;11.53;5.70;;;;;;;9.80;69.15;100139.45;126297;1099;104278;-79
2021/09/24 02:39:54;;;;;;;13.50;5.90;;;;;;;9.80;68.60;100128.98;126329;1099;104220;-79
2021/09/24 02:42:25;;;;;;;10.70;5.30;;;;;;;9.81;68.78;100128.11;126316;1099;104152;-79
2021/09/24 02:44:58;;;;;;;12.47;6.40;;;;;;;9.79;69.11;100123.69;126317;1099;104302;-79
2021/09/24 02:47:29;;;;;;;10.97;5.23;;;;;;;9.78;69.06;100111.41;126291;1099;104332;-80
2021/09/24 02:50:00;;;;;;;13.43;5.90;;;;;;;9.77;69.02;100110.53;126285;1099;104328;-79
2021/09/24 02:52:30;;;;;;;14.80;5.93;;;;;;;9.76;68.99;100105.24;126385;1099;104220;-79
2021/09/24 02:55:08;;;;;;;9.93;5.30;;;;;;;9.75;68.76;100101.70;126291;1099;104201;-80
2021/09/24 02:57:39;;;;;;;10.53;5.27;;;;;;;9.76;68.84;100111.36;126253;1098;104169;-81
2021/09/24 03:00:13;;;;;;;10.00;5.30;;;;;;;9.77;68.61;100104.38;126330;1099;104137;-79
2021/09/24 03:02:44;;;;;;;10.63;5.10;;;;;;;9.78;68.77;100109.67;126347;1099;104155;-80
2021/09/24 03:05:36;;;;;;;13.17;6.40;;;;;;;9.79;68.99;100105.34;126368;1099;104137;-79
2021/09/24 03:08:39;;;;;;;11.63;5.33;;;;;;;9.78;68.33;100088.70;125179;1102;104321;-77
2021/09/24 03:11:23;;;;;;;12.47;5.40;;;;;;;9.78;68.99;100093.95;125243;1102;104281;-79
2021/09/24 03:13:56;;;;;;;10.97;5.47;;;;;;;9.78;69.06;100087.83;125285;1102;104159;-79
2021/09/24 03:16:29;;;;;;;11.93;5.47;;;;;;;9.80;68.83;100087.05;125237;1102;104167;-80
2021/09/24 03:18:59;;;;;;;14.10;6.00;;;;;;;9.80;68.46;100083.52;125274;1099;104320;-79
2021/09/24 03:21:38;;;;;;;13.60;5.73;;;;;;;9.78;68.90;100069.48;125315;1102;104331;-79
2021/09/24 03:24:11;;;;;;;12.20;5.63;;;;;;;9.77;68.53;100071.23;125292;1102;104169;-79
2021/09/24 03:26:46;;;;;;;12.95;6.00;;;;;;;9.77;69.02;100072.94;125342;1102;104252;-81
2021/09/24 03:29:16;;;;;;;12.10;5.33;;;;;;;9.73;69.17;100069.34;125271;1102;104184;-80
2021/09/24 03:31:47;;;;;;;11.67;6.00;;;;;;;9.68;69.05;100076.17;125243;1102;104147;-80
2021/09/24 03:34:19;;;;;;;12.20;5.97;;;;;;;9.66;68.97;100076.12;126049;1099;104274;-79
2021/09/24 03:36:50;;;;;;;12.93;5.83;;;;;;;9.67;68.96;100063.90;126160;1099;104440;-80
2021/09/24 03:39:20;;;;;;;11.00;5.30;;;;;;;9.66;69.06;100064.73;126074;1099;104291;-80
2021/09/24 03:41:54;;;;;;;12.37;5.30;;;;;;;9.66;69.02;100063.02;126217;1099;104396;-80
2021/09/24 03:44:24;;;;;;;11.50;5.05;;;;;;;9.65;69.07;100065.59;125325;1099;104255;-80
2021/09/24 03:46:55;;;;;;;12.40;5.50;;;;;;;9.63;69.10;100069.88;125249;1100;104328;-80
2021/09/24 03:49:26;;;;;;;11.87;5.70;;;;;;;9.62;69.04;100065.49;125421;1099;104501;-80
2021/09/24 03:52:00;;;;;;;10.67;5.13;;;;;;;9.61;68.49;100071.56;126121;1099;104437;-80
2021/09/24 03:54:31;;;;;;;13.17;5.20;;;;;;;9.60;69.01;100089.02;126244;1098;104246;-80
2021/09/24 03:57:02;;;;;;;9.20;4.90;;;;;;;9.58;68.47;100095.03;126120;1099;104137;-78
2021/09/24 03:59:32;;;;;;;11.23;5.83;;;;;;;9.58;69.20;100106.39;126136;1099;104210;-78
2021/09/24 04:02:03;;;;;;;13.33;5.30;;;;;;;9.59;68.92;100117.78;126155;1099;104152;-80
2021/09/24 04:04:34;;;;;;;14.33;5.47;;;;;;;9.60;68.49;100124.78;126363;1099;104134;-80
2021/09/24 04:07:05;;;;;;;11.83;5.57;;;;;;;9.59;69.20;100120.41;126292;1097;104274;-80
2021/09/24 04:09:37;;;;;;;10.97;5.53;;;;;;;9.59;68.88;100116.04;126269;1099;104249;-80
2021/09/24 04:12:09;;;;;;;12.63;5.23;;;;;;;9.59;69.16;100123.02;126335;1098;104150;-80
2021/09/24 04:14:40;;;;;;;13.13;5.50;;;;;;;9.59;69.16;100129.14;126292;1099;104277;-80
2021/09/24 04:17:11;;;;;;;14.00;5.23;;;;;;;9.61;68.95;100130.07;126347;1097;104150;-80
2021/09/24 04:19:42;;;;;;;11.27;5.17;;;;;;;9.62;69.18;100133.60;126304;1099;104156;-80
2021/09/24 04:22:13;;;;;;;13.87;5.77;;;;;;;9.62;68.58;100138.84;126333;1099;104150;-80
2021/09/24 04:24:45;;;;;;;12.50;5.47;;;;;;;9.62;68.63;100137.10;126270;1099;104333;-80
2021/09/24 04:27:16;;;;;;;8.97;5.03;;;;;;;9.62;69.16;100120.50;126331;1098;104321;-81
2021/09/24 04:29:46;;;;;;;11.90;5.70;;;;;;;9.63;68.52;100114.41;126290;1099;104195;-81
2021/09/24 04:32:17;;;;;;;11.63;5.37;;;;;;;9.63;68.53;100124.87;126269;1099;104191;-81
2021/09/24 04:34:48;;;;;;;9.93;5.10;;;;;;;9.62;69.04;100125.74;126275;1099;104351;-80
2021/09/24 04:37:20;;;;;;;12.17;5.37;;;;;;;9.62;69.09;100126.62;126307;1098;104274;-79
2021/09/24 04:39:50;;;;;;;11.33;5.27;;;;;;;9.62;68.91;100134.48;126153;1099;105633;-80
2021/09/24 04:42:21;;;;;;;10.40;5.60;;;;;;;9.62;68.34;100138.84;126284;1099;104258;-81
2021/09/24 04:44:52;;;;;;;10.57;5.57;;;;;;;9.62;68.86;100136.22;126211;1099;104178;-80
2021/09/24 04:47:25;;;;;;;10.65;5.90;;;;;;;9.62;68.47;100131.86;126142;1099;104184;-79
2021/09/24 04:49:56;;;;;;;11.67;5.50;;;;;;;9.65;69.20;100133.70;126174;1099;104277;-80
2021/09/24 04:52:26;;;;;;;12.80;5.83;;;;;;;9.65;68.54;100142.44;126206;1099;104204;-81
2021/09/24 04:54:57;;;;;;;11.47;5.87;;;;;;;9.67;69.21;100135.52;126245;1099;104133;-80
2021/09/24 04:57:29;;;;;;;11.00;5.60;;;;;;;9.67;69.07;100132.89;126200;1097;104165;-81
2021/09/24 05:00:00;;;;;;;12.30;5.77;;;;;;;9.69;68.58;100118.14;126273;1099;104156;-80
2021/09/24 05:02:31;;;;;;;11.73;6.10;;;;;;;9.74;69.46;100104.28;126350;1099;104214;-80
2021/09/24 05:05:02;;;;;;;10.87;5.33;;;;;;;9.77;68.92;100099.14;126336;1099;104191;-82
2021/09/24 05:07:32;;;;;;;11.67;4.80;;;;;;;9.80;69.80;100094.91;126334;1098;104165;-81
2021/09/24 05:10:03;;;;;;;10.43;5.80;;;;;;;9.84;68.97;100096.77;126258;1099;104354;-80
2021/09/24 05:12:34;;;;;;;10.17;5.33;;;;;;;9.88;69.47;100076.81;126315;1099;104287;-81
2021/09/24 05:15:05;;;;;;;12.83;5.63;;;;;;;9.91;69.25;100076.91;126336;1097;104268;-81
2021/09/24 05:17:36;;;;;;;12.60;5.90;;;;;;;9.93;69.40;100079.58;126464;1099;104359;-79
2021/09/24 05:20:08;;;;;;;13.63;6.40;;;;;;;9.95;69.39;100063.04;126225;1099;104140;-80
2021/09/24 05:22:40;;;;;;;11.53;5.80;;;;;;;9.98;69.57;100051.77;126138;1099;104175;-80
2021/09/24 05:25:15;;;;;;;13.80;6.10;;;;;;;9.99;69.59;100036.09;126202;1097;104737;-80
2021/09/24 05:27:46;;;;;;;14.03;6.20;;;;;;;9.99;70.09;100041.34;126336;1099;104174;-80
2021/09/24 05:30:17;;;;;;;13.27;6.50;;;;;;;10.00;70.19;100034.34;126208;1098;104328;-80
2021/09/24 05:32:51;;;;;;;13.70;6.60;;;;;;;9.98;70.00;100034.30;126301;1099;104341;-80
2021/09/24 05:35:22;;;;;;;12.82;6.10;;;;;;;9.96;69.77;100022.89;126288;1099;104192;-81
2021/09/24 05:37:52;;;;;;;13.77;5.87;;;;;;;9.95;70.29;100018.48;126217;1099;104174;-80
2021/09/24 05:40:25;;;;;;;12.07;5.70;;;;;;;9.94;70.45;100016.73;126198;1099;104146;-80
2021/09/24 05:42:57;;;;;;;11.00;6.13;;;;;;;9.93;70.37;100020.17;126185;1099;104149;-78
2021/09/24 05:45:31;;;;;;;11.67;5.57;;;;;;;9.93;69.86;100020.17;125996;1099;104204;-80
2021/09/24 05:48:04;;;;;;;12.60;5.83;;;;;;;9.94;69.94;100065.61;126186;1099;104577;-79
2021/09/24 05:50:36;;;;;;;12.30;6.00;;;;;;;9.95;69.73;100072.64;126016;1099;104284;-79
2021/09/24 05:53:10;;;;;;;13.23;6.37;;;;;;;9.97;70.34;100065.71;126116;1099;104246;-81
2021/09/24 05:55:43;;;;;;;12.57;6.27;;;;;;;9.97;70.33;100056.13;126054;1099;104140;-80
2021/09/24 05:58:16;;;;;;;13.50;5.90;;;;;;;9.98;69.95;100052.66;125975;1099;104137;-79
2021/09/24 06:00:50;;;;;;;13.27;6.17;;;;;;;9.97;69.80;100052.60;126012;1099;104324;-79
2021/09/24 06:03:28;;;;;;;13.57;6.23;;;;;;;9.98;69.73;100036.05;125279;1099;104322;-81
2021/09/24 06:06:01;;;;;;;13.17;6.17;;;;;;;10.01;70.28;100023.91;125963;1099;104149;-78
2021/09/24 06:08:37;;;;;;;12.33;6.03;;;;;;;10.03;70.16;100019.59;125938;1099;104197;-80
2021/09/24 06:11:10;;;;;;;13.63;7.00;;;;;;;10.07;69.83;100013.61;126082;1099;104124;-79
2021/09/24 06:13:55;;;;;;;12.23;6.43;;;;;;;10.12;70.00;100012.88;125265;1099;104255;-80
2021/09/24 06:16:26;;;;;;;13.10;6.20;;;;;;;10.19;69.82;100009.56;126010;1099;104437;-80
2021/09/24 06:18:57;;;;;;;16.83;6.50;;;;;;;10.25;70.32;99994.92;125899;1099;104315;-80
2021/09/24 06:21:31;;;;;;;11.53;6.23;;;;;;;10.35;70.11;99998.72;125323;1099;104165;-79
2021/09/24 06:24:06;;;;;;;12.10;6.20;;;;;;;10.45;70.23;100018.23;125277;1098;104312;-79
2021/09/24 06:26:41;;;;;;;14.23;6.23;;;;;;;10.57;70.27;100020.31;125210;1099;104242;-78
2021/09/24 06:29:16;;;;;;;16.50;6.57;;;;;;;10.65;70.20;100018.78;126018;1099;102897;-79
2021/09/24 06:31:47;;;;;;;;;;;;;;;10.73;69.81;100014.63;126164;1099;104136;-79
2021/09/24 06:34:19;;;;;;;17.23;6.37;;;;;;;10.85;70.14;100011.45;126110;1099;107830;-77
2021/09/24 06:36:52;;;;;;;11.73;6.13;;;;;;;10.92;69.95;99992.41;126248;1099;104239;-79
2021/09/24 06:39:24;;;;;;;12.33;5.58;;;;;;;10.98;69.88;99991.66;126218;1099;104174;-78
2021/09/24 06:41:59;;;;;;;12.53;5.57;;;;;;;11.05;70.03;99988.36;126085;1099;104139;-79
2021/09/24 06:44:33;;;;;;;14.53;6.00;;;;;;;11.13;70.03;99964.92;126194;1099;118644;-78
2021/09/24 06:47:06;;;;;;;13.50;5.22;;;;;;;11.17;69.90;99965.88;125995;1099;104265;-78
2021/09/24 06:49:48;;;;;;;14.10;6.83;;;;;;;11.21;69.91;99975.61;125977;1099;104146;-77
2021/09/24 06:52:22;;;;;;;14.97;6.07;;;;;;;11.23;69.70;99979.16;126041;1099;104309;-80
2021/09/24 06:54:54;;;;;;;10.37;5.30;;;;;;;11.27;69.28;99970.52;125983;1099;102935;-79
2021/09/24 06:57:28;;;;;;;11.80;5.43;;;;;;;11.27;69.20;99974.02;126187;1098;104143;-78
2021/09/24 07:00:00;;;;;;;12.17;5.63;;;;;;;11.28;68.73;99970.55;126161;1099;104352;-78
2021/09/24 07:02:35;;;;;;;9.40;4.93;;;;;;;11.31;69.04;99970.63;126023;1099;104149;-79
2021/09/24 07:05:08;;;;;;;12.40;5.40;;;;;;;11.38;69.29;99955.89;126000;1099;104239;-78
2021/09/24 07:07:48;;;;;;;11.13;5.10;;;;;;;11.49;68.85;99943.01;126017;1099;104149;-78
2021/09/24 07:10:23;;;;;;;9.73;5.40;;;;;;;11.63;68.81;99938.95;126149;1099;104172;-78
2021/09/24 07:12:56;;;;;;;12.47;5.53;;;;;;;11.78;68.73;99932.24;125901;1099;104174;-79
2021/09/24 07:15:28;;;;;;;13.17;5.60;;;;;;;11.90;68.50;99923.74;126147;1099;104162;-79
2021/09/24 07:18:03;;;;;;;14.57;5.70;;;;;;;12.02;68.87;99926.66;126264;1099;104665;-78
2021/09/24 07:20:34;;;;;;;12.93;5.50;;;;;;;12.14;68.54;99919.02;126264;1097;104197;-79
2021/09/24 07:23:07;;;;;;;14.13;6.23;;;;;;;12.21;68.10;99905.12;126138;1099;104137;-79
2021/09/24 07:25:38;;;;;;;12.50;6.00;;;;;;;12.32;68.31;99901.83;126051;1099;104217;-78
2021/09/24 07:28:14;;;;;;;12.37;5.73;;;;;;;12.41;68.49;99897.61;126245;1099;104194;-80
2021/09/24 07:30:46;;;;;;;14.43;6.10;;;;;;;12.49;68.10;99889.86;126237;1099;102009;-78
2021/09/24 07:33:17;;;;;;;12.43;6.20;;;;;;;12.54;68.08;99887.31;126104;1099;104137;-79
2021/09/24 07:35:50;;;;;;;15.73;6.07;;;;;;;12.59;67.66;99883.03;126010;1099;118499;-78
2021/09/24 07:38:23;;;;;;;13.15;5.87;;;;;;;12.70;67.90;99884.10;126131;1099;104165;-78
2021/09/24 07:40:57;;;;;;;14.57;6.20;;;;;;;12.82;67.48;99883.41;126078;1099;104162;-80
2021/09/24 07:43:33;;;;;;;13.77;5.77;;;;;;;12.91;67.13;99867.76;125994;1099;104245;-80
2021/09/24 07:46:06;;;;;;;15.50;6.00;;;;;;;13.05;67.08;99873.24;126025;1099;104159;-79
2021/09/24 07:48:42;;;;;;;11.03;5.78;;;;;;;13.13;66.88;99873.36;126207;1099;104220;-80
2021/09/24 07:51:12;;;;;;;;;;;;;;;13.12;66.67;99861.08;126164;1099;104195;-80
2021/09/24 07:53:58;;;;;;;13.63;5.90;;;;;;;13.16;66.74;99862.00;126170;1099;104165;-78
2021/09/24 07:56:36;;;;;;;11.17;5.60;;;;;;;13.21;66.82;99876.11;126278;1099;104168;-81
2021/09/24 07:59:09;;;;;;;15.43;5.47;;;;;;;13.26;67.03;99870.06;126221;1099;104233;-81
2021/09/24 08:01:44;;;;;;;10.80;5.40;;;;;;;13.34;66.50;99858.77;125992;1099;104348;-80
2021/09/24 08:04:15;;;;;;;10.60;5.27;;;;;;;13.42;65.34;99870.32;125126;1099;104232;-80
2021/09/24 08:06:47;;;;;;;12.53;5.53;;;;;;;13.47;65.95;99863.36;125157;1099;104136;-79
2021/09/24 08:09:24;;;;;;;10.43;5.37;;;;;;;13.55;65.45;99851.16;125313;1098;104195;-81
2021/09/24 08:11:58;;;;;;;11.63;5.60;;;;;;;13.65;65.89;99850.42;125284;1099;104265;-80
2021/09/24 08:14:32;;;;;;;11.43;5.10;;;;;;;13.77;65.54;99848.80;125336;1099;104188;-79
2021/09/24 08:17:07;;;;;;;10.23;5.57;;;;;;;13.87;64.71;99832.23;125348;1099;105009;-78
2021/09/24 08:19:42;;;;;;;12.53;5.30;;;;;;;13.99;65.60;99824.45;125530;1099;104181;-80
2021/09/24 08:22:15;;;;;;;10.18;5.05;;;;;;;14.13;65.22;99821.97;125944;1099;104291;-79
2021/09/24 08:24:49;;;;;;;10.87;5.77;;;;;;;14.24;64.74;99810.62;125875;1099;104140;-80
2021/09/24 08:27:25;;;;;;;10.97;5.10;;;;;;;14.25;64.62;99810.63;126198;1099;104322;-81
2021/09/24 08:30:01;;;;;;;12.17;5.67;;;;;;;14.26;64.17;99816.78;126100;1099;104291;-81
2021/09/24 08:32:36;;;;;;;10.27;5.47;;;;;;;14.28;64.11;99818.58;126196;1099;104171;-79
2021/09/24 08:35:11;;;;;;;11.60;5.13;;;;;;;14.35;65.01;99825.70;126180;1099;104191;-79
2021/09/24 08:37:49;;;;;;;12.53;5.23;;;;;;;14.39;64.03;99816.05;126215;1099;104296;-80
2021/09/24 08:40:28;;;;;;;13.10;5.80;;;;;;;14.38;64.77;99809.89;126068;1099;104185;-80
2021/09/24 08:43:05;;;;;;;9.67;5.10;;;;;;;14.36;64.01;99808.09;125990;1099;104261;-79
2021/09/24 08:45:37;;;;;;;11.90;5.87;;;;;;;14.36;64.45;99794.91;125942;1099;104213;-79
2021/09/24 08:48:15;;;;;;;10.87;5.40;;;;;;;14.38;64.27;99787.87;126057;1099;104210;-79
2021/09/24 08:50:50;;;;;;;10.73;5.53;;;;;;;14.36;64.17;99781.70;126088;1099;104312;-80
2021/09/24 08:53:24;;;;;;;11.53;5.60;;;;;;;14.29;64.15;99788.69;126194;1099;104307;-80
2021/09/24 08:55:59;;;;;;;11.53;5.30;;;;;;;14.25;63.97;99780.73;125845;1099;104332;-79
2021/09/24 08:58:32;;;;;;;11.13;5.73;;;;;;;14.18;64.19;99772.77;125938;1098;104137;-78
2021/09/24 09:01:04;;;;;;;9.87;5.20;;;;;;;14.13;64.01;99779.75;125929;1099;104195;-78
2021/09/24 09:03:42;;;;;;;7.97;5.00;;;;;;;14.10;64.93;99781.45;126048;1098;104195;-79
2021/09/24 09:06:24;;;;;;;11.63;5.47;;;;;;;14.06;64.09;99780.55;125936;1099;105110;-79
2021/09/24 09:09:05;;;;;;;10.77;5.13;;;;;;;14.00;64.34;99781.36;126092;1099;104156;-80
2021/09/24 09:11:38;;;;;;;;;;;;;;;13.96;64.51;99770.77;126310;1098;104249;-79
2021/09/24 09:14:20;;;;;;;9.93;5.10;;;;;;;13.94;63.84;99772.52;126167;1099;104142;-80
2021/09/24 09:16:50;;;;;;;9.33;4.97;;;;;;;13.91;64.14;99761.93;126067;1098;104611;-82
2021/09/24 09:19:24;;;;;;;8.70;5.03;;;;;;;13.88;64.66;99778.59;125906;1099;104337;-80
2021/09/24 09:22:18;;;;;;;10.50;5.30;;;;;;;13.83;64.78;99775.91;126050;1099;104201;-80
2021/09/24 09:24:54;;;;;;;10.73;5.40;;;;;;;13.80;64.39;99777.64;125998;1099;104163;-80
2021/09/24 09:27:32;;;;;;;11.17;5.80;;;;;;;13.77;64.93;99782.88;125817;1099;104150;-81
2021/09/24 09:30:21;;;;;;;11.27;5.70;;;;;;;13.73;64.66;99783.70;125988;1099;104299;-78
2021/09/24 09:33:02;;;;;;;;;;;;;;;13.69;64.49;99774.00;125297;1099;104160;-80
2021/09/24 09:35:42;;;;;;;10.00;5.50;;;;;;;13.64;65.28;99779.22;125164;1102;104443;-81
2021/09/24 09:38:26;;;;;;;13.77;6.70;;;;;;;13.60;65.09;99780.95;125061;1099;104294;-80
2021/09/24 09:41:03;;;;;;;11.57;5.57;;;;;;;13.58;65.41;99789.69;125101;1102;104206;-80
2021/09/24 09:43:41;;;;;;;13.40;5.87;;;;;;;13.56;65.77;99784.41;125194;1099;104460;-79
2021/09/24 09:46:17;;;;;;;12.33;5.83;;;;;;;13.54;65.45;99794.05;125157;1100;104322;-77
2021/09/24 09:49:03;;;;;;;12.87;6.20;;;;;;;13.43;65.30;99787.73;125120;1102;108107;-79
2021/09/24 09:51:37;;;;;;;13.87;6.50;;;;;;;13.45;65.38;99800.08;125107;1102;104595;-78
2021/09/24 09:54:29;;;;;;;12.07;5.80;;;;;;;13.43;65.61;99795.64;125213;1102;104278;-80
2021/09/24 09:57:15;;;;;;;12.07;5.93;;;;;;;13.38;65.39;99799.98;125079;1102;104359;-79
2021/09/24 09:59:54;;;;;;;13.87;6.00;;;;;;;13.33;65.92;99806.91;125166;1102;104165;-79
2021/09/24 10:02:33;;;;;;;15.13;6.50;;;;;;;13.30;66.12;99813.02;125092;1102;104291;-79
2021/09/24 10:05:07;;;;;;;13.87;6.87;;;;;;;13.28;66.63;99818.27;125065;1102;104245;-77
2021/09/24 10:07:43;;;;;;;16.40;7.27;;;;;;;13.27;66.49;99815.61;125059;1099;104271;-78
2021/09/24 10:10:16;;;;;;;14.80;6.70;;;;;;;13.21;66.61;99811.13;125063;1100;104256;-78
2021/09/24 10:12:56;;;;;;;15.83;7.40;;;;;;;13.18;67.01;99820.75;125128;1099;104419;-78
2021/09/24 10:15:27;;;;;;;14.03;6.73;;;;;;;13.14;67.19;99825.09;125107;1099;104401;-79
2021/09/24 10:18:02;;;;;;;17.90;7.53;;;;;;;13.10;66.67;99825.91;125168;1099;104172;-78
2021/09/24 10:20:34;;;;;;;14.20;6.77;;;;;;;13.08;66.80;99825.01;125027;1102;104280;-80
2021/09/24 10:23:09;;;;;;;17.67;7.23;;;;;;;13.03;67.92;99824.94;125066;1102;104174;-81
2021/09/24 10:25:46;;;;;;;15.87;7.77;;;;;;;12.98;67.46;99821.36;125102;1102;104277;-78
2021/09/24 10:28:18;;;;;;;14.20;6.67;;;;;;;12.92;67.54;99816.88;125070;1100;104386;-79
2021/09/24 10:30:57;;;;;;;16.27;7.50;;;;;;;12.89;68.15;99826.48;125088;1102;104182;-79
2021/09/24 10:33:46;;;;;;;16.47;7.43;;;;;;;12.86;67.75;99816.78;125074;1099;104213;-79
2021/09/24 10:36:43;;;;;;;16.07;6.83;;;;;;;12.86;67.75;99821.17;125095;1099;104172;-77
2021/09/24 10:39:41;;;;;;;12.63;6.93;;;;;;;12.86;68.29;99822.05;125777;1099;104245;-78
2021/09/24 10:42:30;;;;;;;18.33;7.17;;;;;;;12.93;68.64;99789.69;125270;1099;104955;-77
2021/09/24 10:45:07;;;;;;;18.10;7.43;;;;;;;13.00;68.30;99784.52;125713;1099;104194;-78
2021/09/24 10:47:53;;;;;;;15.37;7.20;;;;;;;13.06;68.54;99781.97;125895;1099;104344;-77
2021/09/24 10:50:49;;;;;;;16.40;7.03;;;;;;;13.13;68.92;99783.80;126039;1099;104293;-77
2021/09/24 10:53:23;;;;;;;18.23;7.77;;;;;;;13.20;68.76;99769.87;126189;1099;104280;-77
2021/09/24 10:56:19;;;;;;;17.40;7.50;;;;;;;13.28;68.38;99764.70;126277;1099;104431;-79
2021/09/24 10:58:52;;;;;;;15.10;7.10;;;;;;;13.33;68.85;99775.30;126035;1099;104174;-81
2021/09/24 11:01:42;;;;;;;17.57;7.10;;;;;;;13.38;69.05;99766.59;126032;1099;104175;-79
2021/09/24 11:04:16;;;;;;;19.07;7.33;;;;;;;13.43;69.32;99756.11;126022;1099;104300;-78
2021/09/24 11:06:52;;;;;;;13.83;7.13;;;;;;;13.43;69.11;99759.66;126028;1099;104237;-78
2021/09/24 11:09:27;;;;;;;16.33;7.77;;;;;;;13.46;69.40;99751.79;125986;1099;104188;-79
2021/09/24 11:12:08;;;;;;;14.77;6.90;;;;;;;13.48;69.46;99759.72;126029;1099;104149;-79
2021/09/24 11:14:43;;;;;;;15.13;7.23;;;;;;;13.49;69.38;99761.46;126055;1099;104313;-77
2021/09/24 11:17:47;;;;;;;16.33;7.93;;;;;;;13.49;69.44;99766.73;126053;1099;104171;-79
2021/09/24 11:20:35;;;;;;;14.33;7.07;;;;;;;13.45;68.99;99770.22;125923;1099;104558;-78
2021/09/24 11:23:28;;;;;;;15.00;6.93;;;;;;;13.42;69.08;99772.81;126220;1099;104286;-79
2021/09/24 11:26:13;;;;;;;14.57;7.00;;;;;;;13.42;70.08;99778.09;126016;1099;104184;-80
2021/09/24 11:29:06;;;;;;;13.40;6.93;;;;;;;13.36;69.29;99778.88;126129;1099;105607;-79
2021/09/24 11:32:03;;;;;;;16.27;7.90;;;;;;;13.33;69.53;99785.84;126278;1098;104146;-81
2021/09/24 11:34:55;;;;;;;15.53;7.77;;;;;;;13.29;69.56;99791.06;126251;1099;104204;-79
2021/09/24 11:37:32;;;;;;;16.43;7.23;;;;;;;13.23;69.42;99788.34;126060;1099;104166;-80
2021/09/24 11:40:31;;;;;;;20.87;8.13;;;;;;;13.22;69.19;99794.47;126116;1099;104218;-81
2021/09/24 11:43:14;;;;;;;15.33;7.57;;;;;;;13.22;69.54;99794.47;125296;1099;104152;-79
2021/09/24 11:45:58;;;;;;;16.40;7.57;;;;;;;13.20;69.82;99806.75;126019;1099;104370;-80